Main page
METAR-TAF:

METAR-TAF

Airports :

Ouagadougou, Burkina Faso

Ouagadougou Airport

latitude: 12-21N, longitude: 001-31W, elevation: 316 m

Current weather observation

The report was made 1 hour and 0 minutes ago, at 18:00 UTC
Wind 7 kt from the North/Northeast
Temperature 29°C
Humidity 10%
Pressure 1012 hPa
Visibility 10 km or more
no clouds below 1500 m and no cumulonimbus

METAR: DFFD 191800Z 02007KT CAVOK 29/M06 Q1012 NOSIG

Time: 19:00 (19:00 UTC)

Forecast

The report was made 2 hours and 0 minutes ago, at 17:00 UTC
Forecast valid from 19 at 18 UTC to 20 at 24 UTC
Wind 8 kt from the East
Visibility: 8000 m
Temporary
from 19 at 18 UTC to 19 at 21 UTC
Visibility: 4000 m
widespread dust
Temporary
from 20 at 06 UTC to 20 at 10 UTC
Visibility: 4000 m
widespread dust
Temporary
from 20 at 17 UTC to 20 at 20 UTC
Visibility: 4000 m
widespread dust

TAF: DFFD 191700Z 1918/2024 08008KT 8000 NSC TEMPO 1918/1921 4000 DU TEMPO 2006/2010 4000 DU TEMPO 2017/2020 4000 DU

Weather observations and forecasts of more than 4000 airports (METAR and TAF reports).

The available stations are represented by yellow and red dots on the map.

Hover mouse over dot to see the name of the station.

Then click to see weather observations and forecasts.

To change the map : click on the green buttons with a black cross to zoom in, on the green button with a dash to zoom out, or on the green arrows for adjacent maps.


METAR-TAF: